sensor_id;sensor_type;location;lat;lon;timestamp;pressure;altitude;pressure_sealevel;temperature;humidity
65614;BME280;52283;49.292;10.572;2023-06-14T00:02:13;96098.16;;;15.87;56.43
65614;BME280;52283;49.292;10.572;2023-06-14T00:04:39;96099.78;;;15.82;56.46
65614;BME280;52283;49.292;10.572;2023-06-14T00:07:06;96100.47;;;15.75;57.07
65614;BME280;52283;49.292;10.572;2023-06-14T00:09:34;96094.13;;;15.48;58.74
65614;BME280;52283;49.292;10.572;2023-06-14T00:12:03;96107.66;;;15.63;58.38
65614;BME280;52283;49.292;10.572;2023-06-14T00:14:29;96091.72;;;15.66;58.41
65614;BME280;52283;49.292;10.572;2023-06-14T00:16:55;96096.47;;;15.57;58.72
65614;BME280;52283;49.292;10.572;2023-06-14T00:19:23;96101.47;;;15.51;59.14
65614;BME280;52283;49.292;10.572;2023-06-14T00:21:50;96102.38;;;15.46;59.09
65614;BME280;52283;49.292;10.572;2023-06-14T00:24:17;96103.06;;;15.13;60.02
65614;BME280;52283;49.292;10.572;2023-06-14T00:26:43;96101.97;;;14.76;61.52
65614;BME280;52283;49.292;10.572;2023-06-14T00:29:11;96104.59;;;14.87;61.59
65614;BME280;52283;49.292;10.572;2023-06-14T00:31:37;96101.34;;;14.83;62.41
65614;BME280;52283;49.292;10.572;2023-06-14T00:34:04;96101.13;;;15.08;61.61
65614;BME280;52283;49.292;10.572;2023-06-14T00:36:31;96090.44;;;15.40;60.35
65614;BME280;52283;49.292;10.572;2023-06-14T00:38:57;96084.25;;;15.55;59.82
65614;BME280;52283;49.292;10.572;2023-06-14T00:41:24;96090.28;;;15.25;60.80
65614;BME280;52283;49.292;10.572;2023-06-14T00:43:50;96094.69;;;15.34;60.83
65614;BME280;52283;49.292;10.572;2023-06-14T00:46:18;96086.13;;;15.39;60.82
65614;BME280;52283;49.292;10.572;2023-06-14T00:48:45;96081.03;;;15.38;60.92
65614;BME280;52283;49.292;10.572;2023-06-14T00:51:12;96087.53;;;15.33;61.69
65614;BME280;52283;49.292;10.572;2023-06-14T00:53:38;96079.09;;;15.33;61.73
65614;BME280;52283;49.292;10.572;2023-06-14T00:56:06;96085.16;;;15.37;61.34
65614;BME280;52283;49.292;10.572;2023-06-14T00:58:32;96087.06;;;14.81;61.97
65614;BME280;52283;49.292;10.572;2023-06-14T01:00:59;96088.78;;;14.98;61.28
65614;BME280;52283;49.292;10.572;2023-06-14T01:03:27;96094.63;;;15.00;61.78
65614;BME280;52283;49.292;10.572;2023-06-14T01:05:58;96088.47;;;15.01;62.52
65614;BME280;52283;49.292;10.572;2023-06-14T01:08:31;96086.63;;;14.64;65.46
65614;BME280;52283;49.292;10.572;2023-06-14T01:11:08;96105.44;;;14.69;65.89
65614;BME280;52283;49.292;10.572;2023-06-14T01:13:38;96103.19;;;14.35;68.29
65614;BME280;52283;49.292;10.572;2023-06-14T01:16:07;96102.13;;;14.39;68.14
65614;BME280;52283;49.292;10.572;2023-06-14T01:18:35;96103.06;;;14.60;67.35
65614;BME280;52283;49.292;10.572;2023-06-14T01:21:02;96088.22;;;14.46;68.40
65614;BME280;52283;49.292;10.572;2023-06-14T01:23:32;96099.25;;;14.44;67.81
65614;BME280;52283;49.292;10.572;2023-06-14T01:25:59;96095.78;;;14.06;70.18
65614;BME280;52283;49.292;10.572;2023-06-14T01:28:28;96095.75;;;13.74;71.03
65614;BME280;52283;49.292;10.572;2023-06-14T01:30:59;96091.06;;;13.63;72.36
65614;BME280;52283;49.292;10.572;2023-06-14T01:33:31;96095.94;;;13.63;72.79
65614;BME280;52283;49.292;10.572;2023-06-14T01:35:59;96095.06;;;13.87;72.01
65614;BME280;52283;49.292;10.572;2023-06-14T01:38:27;96089.56;;;13.94;71.69
65614;BME280;52283;49.292;10.572;2023-06-14T01:40:56;96089.72;;;14.02;71.64
65614;BME280;52283;49.292;10.572;2023-06-14T01:43:25;96086.75;;;13.94;71.53
65614;BME280;52283;49.292;10.572;2023-06-14T01:45:53;96086.16;;;14.01;71.13
65614;BME280;52283;49.292;10.572;2023-06-14T01:48:20;96088.47;;;14.29;70.56
65614;BME280;52283;49.292;10.572;2023-06-14T01:50:47;96089.22;;;14.17;71.22
65614;BME280;52283;49.292;10.572;2023-06-14T01:53:14;96089.09;;;14.09;71.70
65614;BME280;52283;49.292;10.572;2023-06-14T01:55:41;96088.97;;;14.01;72.45
65614;BME280;52283;49.292;10.572;2023-06-14T01:58:10;96092.56;;;14.15;72.39
65614;BME280;52283;49.292;10.572;2023-06-14T02:00:36;96086.09;;;14.20;71.28
65614;BME280;52283;49.292;10.572;2023-06-14T02:03:03;96093.88;;;14.27;71.64
65614;BME280;52283;49.292;10.572;2023-06-14T02:05:30;96106.38;;;14.13;72.12
65614;BME280;52283;49.292;10.572;2023-06-14T02:07:56;96097.94;;;14.13;72.00
65614;BME280;52283;49.292;10.572;2023-06-14T02:10:23;96096.63;;;14.01;71.44
65614;BME280;52283;49.292;10.572;2023-06-14T02:12:50;96095.81;;;14.19;71.09
65614;BME280;52283;49.292;10.572;2023-06-14T02:15:18;96095.47;;;14.10;71.26
65614;BME280;52283;49.292;10.572;2023-06-14T02:17:44;96090.75;;;14.18;71.03
65614;BME280;52283;49.292;10.572;2023-06-14T02:20:12;96091.94;;;14.22;70.91
65614;BME280;52283;49.292;10.572;2023-06-14T02:22:39;96097.69;;;13.47;74.08
65614;BME280;52283;49.292;10.572;2023-06-14T02:25:06;96107.34;;;13.33;76.62
65614;BME280;52283;49.292;10.572;2023-06-14T02:27:33;96107.09;;;13.50;76.24
65614;BME280;52283;49.292;10.572;2023-06-14T02:30:00;96098.66;;;13.50;75.95
65614;BME280;52283;49.292;10.572;2023-06-14T02:32:28;96099.63;;;13.71;75.42
65614;BME280;52283;49.292;10.572;2023-06-14T02:34:54;96110.59;;;13.56;75.90
65614;BME280;52283;49.292;10.572;2023-06-14T02:37:20;96109.06;;;13.55;76.55
65614;BME280;52283;49.292;10.572;2023-06-14T02:39:47;96105.63;;;13.81;75.62
65614;BME280;52283;49.292;10.572;2023-06-14T02:42:13;96101.88;;;13.91;75.01
65614;BME280;52283;49.292;10.572;2023-06-14T02:44:40;96113.38;;;13.75;75.89
65614;BME280;52283;49.292;10.572;2023-06-14T02:47:07;96115.03;;;13.83;75.67
65614;BME280;52283;49.292;10.572;2023-06-14T02:49:35;96119.34;;;13.84;75.54
65614;BME280;52283;49.292;10.572;2023-06-14T02:52:01;96113.19;;;13.86;75.42
65614;BME280;52283;49.292;10.572;2023-06-14T02:54:27;96116.41;;;13.95;74.92
65614;BME280;52283;49.292;10.572;2023-06-14T02:56:54;96107.34;;;14.02;74.55
65614;BME280;52283;49.292;10.572;2023-06-14T02:59:20;96113.75;;;13.65;75.89
65614;BME280;52283;49.292;10.572;2023-06-14T03:01:50;96107.53;;;13.72;76.06
65614;BME280;52283;49.292;10.572;2023-06-14T03:04:16;96102.19;;;13.88;75.64
65614;BME280;52283;49.292;10.572;2023-06-14T03:06:44;96101.19;;;14.04;74.65
65614;BME280;52283;49.292;10.572;2023-06-14T03:09:15;96094.47;;;14.07;74.66
65614;BME280;52283;49.292;10.572;2023-06-14T03:11:42;96103.34;;;14.11;74.28
65614;BME280;52283;49.292;10.572;2023-06-14T03:14:08;96101.38;;;13.74;75.87
65614;BME280;52283;49.292;10.572;2023-06-14T03:16:36;96112.69;;;13.68;77.07
65614;BME280;52283;49.292;10.572;2023-06-14T03:19:03;96113.97;;;13.30;79.35
65614;BME280;52283;49.292;10.572;2023-06-14T03:21:29;96124.13;;;12.65;83.61
65614;BME280;52283;49.292;10.572;2023-06-14T03:23:57;96127.84;;;12.55;85.50
65614;BME280;52283;49.292;10.572;2023-06-14T03:26:24;96138.56;;;12.50;85.88
65614;BME280;52283;49.292;10.572;2023-06-14T03:28:50;96139.44;;;12.40;86.85
65614;BME280;52283;49.292;10.572;2023-06-14T03:31:17;96143.00;;;12.40;87.89
65614;BME280;52283;49.292;10.572;2023-06-14T03:33:44;96143.69;;;12.46;87.49
65614;BME280;52283;49.292;10.572;2023-06-14T03:36:10;96140.97;;;12.65;86.76
65614;BME280;52283;49.292;10.572;2023-06-14T03:38:37;96147.47;;;12.79;86.08
65614;BME280;52283;49.292;10.572;2023-06-14T03:41:05;96147.28;;;12.96;85.45
65614;BME280;52283;49.292;10.572;2023-06-14T03:43:31;96149.38;;;12.90;85.54
65614;BME280;52283;49.292;10.572;2023-06-14T03:45:58;96141.59;;;13.01;85.19
65614;BME280;52283;49.292;10.572;2023-06-14T03:48:25;96152.06;;;12.76;86.56
65614;BME280;52283;49.292;10.572;2023-06-14T03:50:51;96159.28;;;12.66;87.50
65614;BME280;52283;49.292;10.572;2023-06-14T03:53:20;96161.31;;;12.71;87.01
65614;BME280;52283;49.292;10.572;2023-06-14T03:55:48;96160.34;;;12.88;86.60
65614;BME280;52283;49.292;10.572;2023-06-14T03:58:16;96165.19;;;12.87;86.67
65614;BME280;52283;49.292;10.572;2023-06-14T04:00:43;96168.00;;;12.87;86.54
65614;BME280;52283;49.292;10.572;2023-06-14T04:03:10;96168.38;;;12.78;86.61
65614;BME280;52283;49.292;10.572;2023-06-14T04:05:38;96170.94;;;12.76;87.17
65614;BME280;52283;49.292;10.572;2023-06-14T04:08:07;96173.91;;;12.83;87.65
65614;BME280;52283;49.292;10.572;2023-06-14T04:10:34;96173.81;;;12.95;87.35
65614;BME280;52283;49.292;10.572;2023-06-14T04:13:00;96177.00;;;13.04;86.16
65614;BME280;52283;49.292;10.572;2023-06-14T04:15:28;96180.19;;;13.20;85.71
65614;BME280;52283;49.292;10.572;2023-06-14T04:17:55;96178.28;;;13.28;85.17
65614;BME280;52283;49.292;10.572;2023-06-14T04:20:22;96180.44;;;13.40;84.71
65614;BME280;52283;49.292;10.572;2023-06-14T04:22:49;96172.41;;;13.69;81.34
65614;BME280;52283;49.292;10.572;2023-06-14T04:25:16;96167.09;;;13.65;81.28
65614;BME280;52283;49.292;10.572;2023-06-14T04:27:43;96170.75;;;13.79;80.87
65614;BME280;52283;49.292;10.572;2023-06-14T04:30:10;96168.94;;;13.82;80.84
65614;BME280;52283;49.292;10.572;2023-06-14T04:32:38;96170.78;;;14.11;79.52
65614;BME280;52283;49.292;10.572;2023-06-14T04:35:05;96184.63;;;13.71;82.18
65614;BME280;52283;49.292;10.572;2023-06-14T04:37:32;96177.59;;;13.84;81.79
65614;BME280;52283;49.292;10.572;2023-06-14T04:40:00;96170.75;;;13.98;80.85
65614;BME280;52283;49.292;10.572;2023-06-14T04:42:26;96176.59;;;14.32;78.76
65614;BME280;52283;49.292;10.572;2023-06-14T04:44:56;96181.56;;;14.26;78.62
65614;BME280;52283;49.292;10.572;2023-06-14T04:47:24;96180.84;;;14.39;77.58
65614;BME280;52283;49.292;10.572;2023-06-14T04:49:56;96174.16;;;14.42;77.53
65614;BME280;52283;49.292;10.572;2023-06-14T04:52:23;96183.38;;;14.23;78.88
65614;BME280;52283;49.292;10.572;2023-06-14T04:54:51;96180.84;;;14.39;77.71
65614;BME280;52283;49.292;10.572;2023-06-14T04:57:19;96192.63;;;14.69;76.14
65614;BME280;52283;49.292;10.572;2023-06-14T04:59:47;96184.41;;;14.71;75.47
65614;BME280;52283;49.292;10.572;2023-06-14T05:02:14;96184.44;;;14.84;75.03
65614;BME280;52283;49.292;10.572;2023-06-14T05:04:40;96188.72;;;14.72;75.48
65614;BME280;52283;49.292;10.572;2023-06-14T05:07:09;96186.06;;;14.80;74.72
65614;BME280;52283;49.292;10.572;2023-06-14T05:09:36;96188.22;;;14.87;74.67
65614;BME280;52283;49.292;10.572;2023-06-14T05:12:03;96182.13;;;14.70;73.46
65614;BME280;52283;49.292;10.572;2023-06-14T05:14:29;96191.47;;;14.91;73.49
65614;BME280;52283;49.292;10.572;2023-06-14T05:16:56;96188.75;;;14.99;73.79
65614;BME280;52283;49.292;10.572;2023-06-14T05:19:22;96182.94;;;15.23;72.28
65614;BME280;52283;49.292;10.572;2023-06-14T05:21:49;96177.31;;;15.23;71.93
65614;BME280;52283;49.292;10.572;2023-06-14T05:24:17;96188.47;;;15.15;72.63
65614;BME280;52283;49.292;10.572;2023-06-14T05:26:44;96183.91;;;15.25;71.90
65614;BME280;52283;49.292;10.572;2023-06-14T05:29:10;96185.53;;;15.34;71.78
65614;BME280;52283;49.292;10.572;2023-06-14T05:31:37;96183.25;;;15.33;71.96
65614;BME280;52283;49.292;10.572;2023-06-14T05:34:04;96191.16;;;14.94;72.12
65614;BME280;52283;49.292;10.572;2023-06-14T05:36:30;96185.44;;;15.27;71.26
65614;BME280;52283;49.292;10.572;2023-06-14T05:38:57;96196.22;;;14.96;72.23
65614;BME280;52283;49.292;10.572;2023-06-14T05:41:26;96192.47;;;15.07;73.28
65614;BME280;52283;49.292;10.572;2023-06-14T05:43:54;96191.16;;;15.34;71.72
65614;BME280;52283;49.292;10.572;2023-06-14T05:46:21;96193.88;;;15.40;71.02
65614;BME280;52283;49.292;10.572;2023-06-14T05:48:50;96194.09;;;15.15;71.25
65614;BME280;52283;49.292;10.572;2023-06-14T05:51:17;96202.97;;;15.33;71.97
65614;BME280;52283;49.292;10.572;2023-06-14T05:53:45;96210.66;;;15.59;71.20
65614;BME280;52283;49.292;10.572;2023-06-14T05:56:11;96210.50;;;15.91;69.99
65614;BME280;52283;49.292;10.572;2023-06-14T05:58:39;96197.53;;;15.74;70.04
65614;BME280;52283;49.292;10.572;2023-06-14T06:01:06;96202.00;;;15.70;69.88
65614;BME280;52283;49.292;10.572;2023-06-14T06:03:32;96204.38;;;15.66;69.41
65614;BME280;52283;49.292;10.572;2023-06-14T06:05:59;96210.88;;;15.61;70.36
65614;BME280;52283;49.292;10.572;2023-06-14T06:08:26;96210.13;;;15.73;70.30
65614;BME280;52283;49.292;10.572;2023-06-14T06:10:52;96212.38;;;15.75;70.80
65614;BME280;52283;49.292;10.572;2023-06-14T06:13:19;96212.25;;;15.94;69.84
65614;BME280;52283;49.292;10.572;2023-06-14T06:15:46;96203.22;;;16.08;68.74
65614;BME280;52283;49.292;10.572;2023-06-14T06:18:13;96214.84;;;15.92;69.52
65614;BME280;52283;49.292;10.572;2023-06-14T06:20:39;96219.59;;;15.97;69.38
65614;BME280;52283;49.292;10.572;2023-06-14T06:23:06;96211.81;;;16.24;69.18
65614;BME280;52283;49.292;10.572;2023-06-14T06:25:33;96216.28;;;16.19;69.32
65614;BME280;52283;49.292;10.572;2023-06-14T06:27:59;96224.75;;;16.19;69.25
65614;BME280;52283;49.292;10.572;2023-06-14T06:30:26;96229.34;;;15.96;70.10
65614;BME280;52283;49.292;10.572;2023-06-14T06:32:54;96224.69;;;16.32;70.29
65614;BME280;52283;49.292;10.572;2023-06-14T06:35:21;96220.84;;;16.43;69.26
65614;BME280;52283;49.292;10.572;2023-06-14T06:37:48;96227.88;;;16.29;69.29
65614;BME280;52283;49.292;10.572;2023-06-14T06:40:14;96225.25;;;16.31;69.10
65614;BME280;52283;49.292;10.572;2023-06-14T06:42:41;96231.16;;;16.40;69.48
65614;BME280;52283;49.292;10.572;2023-06-14T06:45:08;96213.13;;;16.77;68.08
65614;BME280;52283;49.292;10.572;2023-06-14T06:47:35;96214.84;;;16.81;67.91
65614;BME280;52283;49.292;10.572;2023-06-14T06:50:03;96216.47;;;16.97;67.49
65614;BME280;52283;49.292;10.572;2023-06-14T06:52:30;96218.56;;;16.96;67.31
65614;BME280;52283;49.292;10.572;2023-06-14T06:54:56;96216.25;;;17.16;65.49
65614;BME280;52283;49.292;10.572;2023-06-14T06:57:23;96216.47;;;17.18;65.61
65614;BME280;52283;49.292;10.572;2023-06-14T06:59:49;96230.88;;;17.35;65.52
65614;BME280;52283;49.292;10.572;2023-06-14T07:02:16;96228.16;;;17.50;64.89
65614;BME280;52283;49.292;10.572;2023-06-14T07:04:43;96224.34;;;17.48;64.09
65614;BME280;52283;49.292;10.572;2023-06-14T07:07:11;96224.81;;;17.59;64.79
65614;BME280;52283;49.292;10.572;2023-06-14T07:09:37;96224.09;;;17.66;64.06
65614;BME280;52283;49.292;10.572;2023-06-14T07:12:04;96222.81;;;18.11;62.67
65614;BME280;52283;49.292;10.572;2023-06-14T07:14:32;96226.19;;;18.10;62.26
65614;BME280;52283;49.292;10.572;2023-06-14T07:16:58;96228.06;;;18.00;62.26
65614;BME280;52283;49.292;10.572;2023-06-14T07:19:25;96231.63;;;18.00;62.54
65614;BME280;52283;49.292;10.572;2023-06-14T07:21:51;96226.31;;;18.40;61.86
65614;BME280;52283;49.292;10.572;2023-06-14T07:24:19;96227.47;;;17.93;62.13
65614;BME280;52283;49.292;10.572;2023-06-14T07:26:47;96239.16;;;17.97;63.12
65614;BME280;52283;49.292;10.572;2023-06-14T07:29:14;96233.25;;;18.32;61.43
65614;BME280;52283;49.292;10.572;2023-06-14T07:31:41;96225.25;;;19.27;58.36
65614;BME280;52283;49.292;10.572;2023-06-14T07:34:08;96223.00;;;19.26;56.40
65614;BME280;52283;49.292;10.572;2023-06-14T07:36:34;96229.63;;;18.98;58.58
65614;BME280;52283;49.292;10.572;2023-06-14T07:39:01;96223.56;;;19.24;56.87
65614;BME280;52283;49.292;10.572;2023-06-14T07:41:30;96228.47;;;19.08;56.87
65614;BME280;52283;49.292;10.572;2023-06-14T07:43:56;96227.34;;;19.27;56.94
65614;BME280;52283;49.292;10.572;2023-06-14T07:46:23;96219.44;;;20.03;55.19
65614;BME280;52283;49.292;10.572;2023-06-14T07:48:49;96236.38;;;20.19;54.80
65614;BME280;52283;49.292;10.572;2023-06-14T07:51:16;96237.31;;;19.66;54.96
65614;BME280;52283;49.292;10.572;2023-06-14T07:53:43;96227.50;;;20.15;53.52
65614;BME280;52283;49.292;10.572;2023-06-14T07:56:09;96236.28;;;19.94;54.20
65614;BME280;52283;49.292;10.572;2023-06-14T07:58:37;96221.25;;;20.16;52.94
65614;BME280;52283;49.292;10.572;2023-06-14T08:01:03;96227.47;;;19.82;53.87
65614;BME280;52283;49.292;10.572;2023-06-14T08:03:31;96230.88;;;19.81;53.54
65614;BME280;52283;49.292;10.572;2023-06-14T08:05:58;96218.13;;;20.45;51.96
65614;BME280;52283;49.292;10.572;2023-06-14T08:08:25;96244.78;;;20.01;52.37
65614;BME280;52283;49.292;10.572;2023-06-14T08:10:52;96235.03;;;20.92;50.49
65614;BME280;52283;49.292;10.572;2023-06-14T08:13:18;96231.59;;;21.19;48.49
65614;BME280;52283;49.292;10.572;2023-06-14T08:15:46;96238.56;;;20.35;52.47
65614;BME280;52283;49.292;10.572;2023-06-14T08:18:13;96244.13;;;19.55;51.83
65614;BME280;52283;49.292;10.572;2023-06-14T08:20:40;96238.47;;;19.47;51.89
65614;BME280;52283;49.292;10.572;2023-06-14T08:23:06;96239.22;;;19.48;50.42
65614;BME280;52283;49.292;10.572;2023-06-14T08:25:34;96241.78;;;19.99;50.46
65614;BME280;52283;49.292;10.572;2023-06-14T08:28:00;96238.75;;;20.37;51.25
65614;BME280;52283;49.292;10.572;2023-06-14T08:30:27;96224.00;;;21.29;48.33
65614;BME280;52283;49.292;10.572;2023-06-14T08:32:55;96240.03;;;21.09;48.10
65614;BME280;52283;49.292;10.572;2023-06-14T08:35:21;96237.56;;;20.08;47.85
65614;BME280;52283;49.292;10.572;2023-06-14T08:37:49;96228.94;;;21.21;46.11
65614;BME280;52283;49.292;10.572;2023-06-14T08:40:20;96224.28;;;21.75;43.88
65614;BME280;52283;49.292;10.572;2023-06-14T08:42:55;96235.69;;;20.83;45.75
65614;BME280;52283;49.292;10.572;2023-06-14T08:45:23;96233.63;;;20.76;45.51
65614;BME280;52283;49.292;10.572;2023-06-14T08:47:50;96233.72;;;21.78;45.68
65614;BME280;52283;49.292;10.572;2023-06-14T08:50:21;96233.22;;;20.80;45.56
65614;BME280;52283;49.292;10.572;2023-06-14T08:52:53;96238.91;;;20.80;45.79
65614;BME280;52283;49.292;10.572;2023-06-14T08:55:21;96239.78;;;21.40;46.25
65614;BME280;52283;49.292;10.572;2023-06-14T08:57:51;96234.81;;;22.34;43.95
65614;BME280;52283;49.292;10.572;2023-06-14T09:00:20;96231.44;;;21.24;44.46
65614;BME280;52283;49.292;10.572;2023-06-14T09:02:47;96227.97;;;22.47;43.47
65614;BME280;52283;49.292;10.572;2023-06-14T09:05:14;96224.44;;;21.60;43.60
65614;BME280;52283;49.292;10.572;2023-06-14T09:07:44;96222.81;;;22.53;42.57
65614;BME280;52283;49.292;10.572;2023-06-14T09:10:15;96226.41;;;22.09;43.30
65614;BME280;52283;49.292;10.572;2023-06-14T09:12:42;96212.84;;;22.98;41.30
65614;BME280;52283;49.292;10.572;2023-06-14T09:15:10;96228.72;;;22.20;43.44
65614;BME280;52283;49.292;10.572;2023-06-14T09:17:36;96221.66;;;21.35;43.07
65614;BME280;52283;49.292;10.572;2023-06-14T09:20:04;96230.16;;;22.83;42.63
65614;BME280;52283;49.292;10.572;2023-06-14T09:22:34;96227.78;;;23.91;41.01
65614;BME280;52283;49.292;10.572;2023-06-14T09:25:02;96237.97;;;20.77;44.49
65614;BME280;52283;49.292;10.572;2023-06-14T09:27:29;96250.16;;;21.27;44.63
65614;BME280;52283;49.292;10.572;2023-06-14T09:29:55;96219.31;;;23.08;42.03
65614;BME280;52283;49.292;10.572;2023-06-14T09:32:22;96227.41;;;23.02;42.04
65614;BME280;52283;49.292;10.572;2023-06-14T09:34:49;96236.09;;;22.06;43.20
65614;BME280;52283;49.292;10.572;2023-06-14T09:39:52;96211.63;;;23.48;37.84
65614;BME280;52283;49.292;10.572;2023-06-14T09:42:20;96221.75;;;23.58;37.00
65614;BME280;52283;49.292;10.572;2023-06-14T09:44:48;96221.97;;;23.33;37.70
65614;BME280;52283;49.292;10.572;2023-06-14T09:47:16;96231.25;;;22.16;40.63
65614;BME280;52283;49.292;10.572;2023-06-14T09:49:42;96222.63;;;22.51;38.89
65614;BME280;52283;49.292;10.572;2023-06-14T09:52:10;96229.13;;;22.34;39.28
65614;BME280;52283;49.292;10.572;2023-06-14T09:54:41;96233.00;;;21.95;40.22
65614;BME280;52283;49.292;10.572;2023-06-14T09:57:08;96226.25;;;23.61;38.22
65614;BME280;52283;49.292;10.572;2023-06-14T09:59:39;96234.88;;;22.44;39.39
65614;BME280;52283;49.292;10.572;2023-06-14T10:02:11;96215.72;;;23.08;37.96
65614;BME280;52283;49.292;10.572;2023-06-14T10:04:41;96225.22;;;23.20;39.17
65614;BME280;52283;49.292;10.572;2023-06-14T10:07:14;96210.06;;;24.41;35.69
65614;BME280;52283;49.292;10.572;2023-06-14T10:09:42;96209.75;;;23.69;35.98
65614;BME280;52283;49.292;10.572;2023-06-14T10:12:14;96213.94;;;23.68;37.40
65614;BME280;52283;49.292;10.572;2023-06-14T10:14:48;96214.47;;;21.86;38.30
65614;BME280;52283;49.292;10.572;2023-06-14T10:17:21;96220.72;;;23.17;38.32
65614;BME280;52283;49.292;10.572;2023-06-14T10:19:55;96202.44;;;25.25;35.19
65614;BME280;52283;49.292;10.572;2023-06-14T10:22:28;96198.19;;;25.26;34.10
65614;BME280;52283;49.292;10.572;2023-06-14T10:24:55;96220.69;;;22.80;37.31
65614;BME280;52283;49.292;10.572;2023-06-14T10:27:22;96224.16;;;22.08;39.41
65614;BME280;52283;49.292;10.572;2023-06-14T10:30:04;96231.81;;;21.46;40.60
65614;BME280;52283;49.292;10.572;2023-06-14T10:32:31;96232.19;;;21.42;40.88
65614;BME280;52283;49.292;10.572;2023-06-14T10:34:59;96235.56;;;21.48;40.80
65614;BME280;52283;49.292;10.572;2023-06-14T10:37:27;96226.09;;;21.63;40.49
65614;BME280;52283;49.292;10.572;2023-06-14T10:39:53;96230.22;;;21.70;39.51
65614;BME280;52283;49.292;10.572;2023-06-14T10:42:20;96227.53;;;21.54;40.19
65614;BME280;52283;49.292;10.572;2023-06-14T10:44:49;96218.94;;;21.79;39.69
65614;BME280;52283;49.292;10.572;2023-06-14T10:47:33;96237.34;;;21.96;41.56
65614;BME280;52283;49.292;10.572;2023-06-14T10:50:04;96238.56;;;22.02;41.26
65614;BME280;52283;49.292;10.572;2023-06-14T10:52:33;96231.91;;;21.73;41.98
65614;BME280;52283;49.292;10.572;2023-06-14T10:55:09;96228.28;;;22.24;41.08
65614;BME280;52283;49.292;10.572;2023-06-14T10:57:39;96224.91;;;22.52;40.41
65614;BME280;52283;49.292;10.572;2023-06-14T11:00:07;96241.03;;;22.06;42.42
65614;BME280;52283;49.292;10.572;2023-06-14T11:03:23;96225.84;;;22.65;40.25
65614;BME280;52283;49.292;10.572;2023-06-14T11:05:57;96222.66;;;23.61;38.38
65614;BME280;52283;49.292;10.572;2023-06-14T11:08:39;96213.22;;;23.87;38.01
65614;BME280;52283;49.292;10.572;2023-06-14T11:11:07;96209.44;;;24.23;37.74
65614;BME280;52283;49.292;10.572;2023-06-14T11:13:36;96202.56;;;23.78;37.73
65614;BME280;52283;49.292;10.572;2023-06-14T11:16:10;96217.13;;;22.09;40.35
65614;BME280;52283;49.292;10.572;2023-06-14T11:18:37;96224.53;;;22.21;39.35
65614;BME280;52283;49.292;10.572;2023-06-14T11:21:04;96222.50;;;21.63;41.18
65614;BME280;52283;49.292;10.572;2023-06-14T11:23:31;96221.53;;;22.19;40.91
65614;BME280;52283;49.292;10.572;2023-06-14T11:25:57;96216.66;;;21.78;40.06
65614;BME280;52283;49.292;10.572;2023-06-14T11:28:23;96205.16;;;23.37;39.30
65614;BME280;52283;49.292;10.572;2023-06-14T11:30:59;96199.09;;;25.29;35.68
65614;BME280;52283;49.292;10.572;2023-06-14T11:33:26;96206.09;;;24.66;36.05
65614;BME280;52283;49.292;10.572;2023-06-14T11:35:54;96205.22;;;24.53;35.63
65614;BME280;52283;49.292;10.572;2023-06-14T11:38:20;96225.56;;;23.34;38.78
65614;BME280;52283;49.292;10.572;2023-06-14T11:40:47;96225.28;;;23.49;37.62
65614;BME280;52283;49.292;10.572;2023-06-14T11:43:13;96222.16;;;23.55;38.17
65614;BME280;52283;49.292;10.572;2023-06-14T11:45:40;96223.88;;;24.95;37.27
65614;BME280;52283;49.292;10.572;2023-06-14T11:48:06;96215.91;;;24.93;35.77
65614;BME280;52283;49.292;10.572;2023-06-14T11:50:37;96209.84;;;22.96;39.09
65614;BME280;52283;49.292;10.572;2023-06-14T11:53:05;96226.09;;;23.69;38.06
65614;BME280;52283;49.292;10.572;2023-06-14T11:55:36;96207.19;;;23.64;37.86
65614;BME280;52283;49.292;10.572;2023-06-14T11:58:02;96206.63;;;23.75;37.96
65614;BME280;52283;49.292;10.572;2023-06-14T12:00:30;96195.66;;;23.16;36.72
65614;BME280;52283;49.292;10.572;2023-06-14T12:02:56;96194.72;;;23.69;36.24
65614;BME280;52283;49.292;10.572;2023-06-14T12:05:24;96193.09;;;25.25;34.03
65614;BME280;52283;49.292;10.572;2023-06-14T12:07:58;96192.38;;;24.74;34.33
65614;BME280;52283;49.292;10.572;2023-06-14T12:10:27;96197.56;;;24.46;35.22
65614;BME280;52283;49.292;10.572;2023-06-14T12:12:56;96196.53;;;24.22;35.72
65614;BME280;52283;49.292;10.572;2023-06-14T12:15:23;96197.69;;;24.58;35.39
65614;BME280;52283;49.292;10.572;2023-06-14T12:17:50;96206.78;;;23.31;36.91
65614;BME280;52283;49.292;10.572;2023-06-14T12:20:18;96211.28;;;22.88;37.46
65614;BME280;52283;49.292;10.572;2023-06-14T12:22:50;96189.78;;;23.89;35.86
65614;BME280;52283;49.292;10.572;2023-06-14T12:25:25;96181.97;;;23.80;34.96
65614;BME280;52283;49.292;10.572;2023-06-14T12:27:53;96192.66;;;23.79;34.63
65614;BME280;52283;49.292;10.572;2023-06-14T12:30:19;96198.19;;;23.87;34.70
65614;BME280;52283;49.292;10.572;2023-06-14T12:32:46;96199.00;;;22.85;36.28
65614;BME280;52283;49.292;10.572;2023-06-14T12:35:13;96193.38;;;24.09;34.74
65614;BME280;52283;49.292;10.572;2023-06-14T12:37:40;96195.13;;;24.52;33.99
65614;BME280;52283;49.292;10.572;2023-06-14T12:40:08;96192.13;;;24.50;34.14
65614;BME280;52283;49.292;10.572;2023-06-14T12:42:38;96191.00;;;23.95;34.69
65614;BME280;52283;49.292;10.572;2023-06-14T12:45:05;96189.56;;;24.64;33.54
65614;BME280;52283;49.292;10.572;2023-06-14T12:47:31;96196.44;;;25.21;32.97
65614;BME280;52283;49.292;10.572;2023-06-14T12:49:58;96198.03;;;25.03;33.56
65614;BME280;52283;49.292;10.572;2023-06-14T12:52:24;96205.41;;;23.97;35.09
65614;BME280;52283;49.292;10.572;2023-06-14T12:54:51;96199.53;;;23.66;34.31
65614;BME280;52283;49.292;10.572;2023-06-14T12:57:17;96206.84;;;23.50;34.43